Time;durP1;ratioP1;P1;durP2;ratioP2;P2;SDS_P1;SDS_P2;PMS_P1;PMS_P2;Temp;Humidity;BMP_temperature;BMP_pressure;BME280_temperature;BME280_humidity;BME280_pressure;Samples;Min_cycle;Max_cycle;Signal;HPM_P1;HPM_P2
2023/09/18 00:00:57;;;;;;;4.32;3.20;;;22.00;99.90;;;;;;4129914;28;20052;-74
2023/09/18 00:02:58;;;;;;;5.30;3.30;;;22.00;99.90;;;;;;4128925;28;20041;-75
2023/09/18 00:04:59;;;;;;;3.75;3.15;;;22.00;99.90;;;;;;4134502;28;20038;-73
2023/09/18 00:07:00;;;;;;;4.68;3.30;;;22.00;99.90;;;;;;4128943;28;20039;-74
2023/09/18 00:09:00;;;;;;;5.07;3.17;;;22.00;99.90;;;;;;4127987;28;20037;-74
2023/09/18 00:11:01;;;;;;;4.70;2.78;;;22.00;99.90;;;;;;4134232;28;20093;-74
2023/09/18 00:13:01;;;;;;;3.83;2.72;;;22.00;99.90;;;;;;4128891;28;20082;-74
2023/09/18 00:15:02;;;;;;;3.33;2.83;;;22.00;99.90;;;;;;4128208;28;20066;-75
2023/09/18 00:17:03;;;;;;;3.85;3.03;;;22.00;99.90;;;;;;4127058;28;20463;-74
2023/09/18 00:19:06;;;;;;;4.05;2.88;;;21.90;99.90;;;;;;4130742;28;20046;-74
2023/09/18 00:21:07;;;;;;;3.92;2.97;;;21.90;99.90;;;;;;4135969;28;20038;-74
2023/09/18 00:23:08;;;;;;;3.80;2.88;;;21.90;99.90;;;;;;4129330;28;20376;-75
2023/09/18 00:25:09;;;;;;;7.20;2.97;;;21.90;99.90;;;;;;4135483;28;20081;-75
2023/09/18 00:27:11;;;;;;;3.97;2.85;;;21.90;99.90;;;;;;4126865;28;20038;-73
2023/09/18 00:29:11;;;;;;;5.03;2.50;;;21.90;99.90;;;;;;4131597;28;20124;-74
2023/09/18 00:31:12;;;;;;;3.70;2.45;;;21.90;99.90;;;;;;4128290;28;20046;-74
2023/09/18 00:33:12;;;;;;;4.00;2.92;;;21.90;99.90;;;;;;4129565;28;20045;-74
2023/09/18 00:35:13;;;;;;;4.47;3.05;;;21.90;99.90;;;;;;4128487;28;20134;-74
2023/09/18 00:37:14;;;;;;;3.90;2.88;;;21.90;99.90;;;;;;4123415;28;20027;-74
2023/09/18 00:39:15;;;;;;;5.15;3.10;;;21.90;99.90;;;;;;4121574;28;20042;-73
2023/09/18 00:41:16;;;;;;;4.95;3.28;;;21.90;99.90;;;;;;4134122;28;25526;-74
2023/09/18 00:43:17;;;;;;;3.88;2.65;;;21.90;99.90;;;;;;4128226;28;20595;-75
2023/09/18 00:45:18;;;;;;;3.47;3.10;;;21.90;99.90;;;;;;4127223;28;20046;-73
2023/09/18 00:47:19;;;;;;;3.55;3.03;;;21.90;99.90;;;;;;4125968;28;20052;-74
2023/09/18 00:49:21;;;;;;;3.63;2.90;;;21.80;99.90;;;;;;4131550;28;20096;-74
2023/09/18 00:51:22;;;;;;;4.60;3.10;;;21.80;99.90;;;;;;4126397;28;20038;-74
2023/09/18 00:53:25;;;;;;;7.60;3.28;;;21.80;99.90;;;;;;4125917;28;20042;-74
2023/09/18 00:55:27;;;;;;;4.50;3.15;;;21.80;99.90;;;;;;4119680;28;20105;-74
2023/09/18 00:57:29;;;;;;;4.45;2.90;;;21.80;99.90;;;;;;4121576;28;20034;-74
2023/09/18 00:59:30;;;;;;;5.38;3.17;;;21.80;99.90;;;;;;4122789;28;20077;-75
2023/09/18 01:01:32;;;;;;;6.90;2.90;;;21.80;99.90;;;;;;4119366;28;20398;-74
2023/09/18 01:03:32;;;;;;;4.68;3.33;;;21.80;99.90;;;;;;4128575;28;20042;-74
2023/09/18 01:05:33;;;;;;;4.43;3.15;;;21.80;99.90;;;;;;4120363;28;20033;-74
2023/09/18 01:07:34;;;;;;;5.78;3.25;;;21.80;99.90;;;;;;4125585;28;20039;-74
2023/09/18 01:09:35;;;;;;;3.85;3.05;;;21.80;99.90;;;;;;4133676;28;20054;-74
2023/09/18 01:11:44;;;;;;;3.08;2.67;;;21.80;99.90;;;;;;4138993;28;20095;-74
2023/09/18 01:13:54;;;;;;;5.97;3.72;;;21.70;99.90;;;;;;4125984;28;20113;-71
2023/09/18 01:16:04;;;;;;;8.05;2.97;;;21.70;99.90;;;;;;4121291;28;20069;-75
2023/09/18 01:18:05;;;;;;;4.43;3.03;;;21.70;99.90;;;;;;4125921;28;26225;-73
2023/09/18 01:20:09;;;;;;;5.22;3.65;;;21.70;99.90;;;;;;4131036;28;20069;-65
2023/09/18 01:22:12;;;;;;;6.03;3.50;;;21.70;99.90;;;;;;4135729;28;20113;-66
2023/09/18 01:24:12;;;;;;;6.50;3.05;;;21.70;99.90;;;;;;4123547;28;20037;-66
2023/09/18 01:26:13;;;;;;;6.78;3.80;;;21.70;99.90;;;;;;4126109;28;20066;-66
2023/09/18 01:28:13;;;;;;;4.30;3.40;;;21.70;99.90;;;;;;4125928;28;20084;-67
2023/09/18 01:30:15;;;;;;;5.00;3.20;;;21.70;99.90;;;;;;4130054;28;20383;-66
2023/09/18 01:32:16;;;;;;;4.47;2.93;;;21.70;99.90;;;;;;4136747;28;20049;-67
2023/09/18 01:34:18;;;;;;;4.20;2.90;;;21.70;99.90;;;;;;4126581;28;20030;-67
2023/09/18 01:36:20;;;;;;;4.45;2.88;;;21.70;99.90;;;;;;4125793;28;20039;-66
2023/09/18 01:38:22;;;;;;;5.97;2.90;;;21.70;99.90;;;;;;4126522;28;20137;-67
2023/09/18 01:40:24;;;;;;;3.78;2.72;;;21.70;99.90;;;;;;4129520;28;20275;-66
2023/09/18 01:42:26;;;;;;;4.07;3.22;;;21.70;99.90;;;;;;4127762;28;20534;-66
2023/09/18 01:44:28;;;;;;;3.90;2.75;;;21.70;99.90;;;;;;4127077;28;20488;-66
2023/09/18 01:46:29;;;;;;;7.43;3.13;;;21.70;99.90;;;;;;4124600;28;20030;-67
2023/09/18 01:48:30;;;;;;;6.90;3.25;;;21.70;99.90;;;;;;4125641;28;20490;-67
2023/09/18 01:50:30;;;;;;;6.72;3.50;;;21.70;99.90;;;;;;4136274;28;20038;-67
2023/09/18 01:52:31;;;;;;;5.53;3.30;;;21.70;99.90;;;;;;4134151;28;20041;-66
2023/09/18 01:54:33;;;;;;;5.05;3.58;;;21.70;99.90;;;;;;4114983;28;20387;-66
2023/09/18 01:56:34;;;;;;;4.63;3.38;;;21.70;99.90;;;;;;4124463;28;20031;-66
2023/09/18 01:58:35;;;;;;;4.65;3.65;;;21.70;99.90;;;;;;4123707;28;20071;-66
2023/09/18 02:00:35;;;;;;;3.85;3.10;;;21.60;99.90;;;;;;4129119;28;20105;-66
2023/09/18 02:02:37;;;;;;;4.35;2.92;;;21.60;99.90;;;;;;4138190;28;20039;-66
2023/09/18 02:04:38;;;;;;;9.50;3.58;;;21.60;99.90;;;;;;4126350;28;20030;-66
2023/09/18 02:06:39;;;;;;;5.43;3.25;;;21.60;99.90;;;;;;4125538;28;20046;-65
2023/09/18 02:08:40;;;;;;;3.58;2.75;;;21.60;99.90;;;;;;4121777;28;20050;-66
2023/09/18 02:10:41;;;;;;;3.67;3.20;;;21.60;99.90;;;;;;4125175;28;20664;-67
2023/09/18 02:12:41;;;;;;;4.00;2.88;;;21.60;99.90;;;;;;4124897;28;20121;-66
2023/09/18 02:14:42;;;;;;;3.97;2.92;;;21.70;99.90;;;;;;4125119;28;20022;-67
2023/09/18 02:16:44;;;;;;;3.42;2.70;;;21.70;99.90;;;;;;4129746;28;20042;-66
2023/09/18 02:18:44;;;;;;;4.40;2.85;;;21.70;99.90;;;;;;4126816;28;20058;-67
2023/09/18 02:20:48;;;;;;;7.22;2.85;;;21.70;99.90;;;;;;4136496;28;20053;-66
2023/09/18 02:22:49;;;;;;;3.33;2.60;;;21.70;99.90;;;;;;4136309;28;20146;-67
2023/09/18 02:24:50;;;;;;;2.95;2.63;;;21.70;99.90;;;;;;4113449;28;20066;-67
2023/09/18 02:26:51;;;;;;;4.13;2.47;;;21.80;99.90;;;;;;4124430;28;20439;-67
2023/09/18 02:28:53;;;;;;;4.30;3.10;;;21.80;99.90;;;;;;4127092;28;20038;-66
2023/09/18 02:30:54;;;;;;;;;;;21.80;99.90;;;;;;4134157;28;20040;-67
2023/09/18 02:32:55;;;;;;;3.15;2.50;;;21.80;99.90;;;;;;4135254;28;20001;-67
2023/09/18 02:34:55;;;;;;;3.78;2.92;;;21.80;99.90;;;;;;4126700;28;20034;-67
2023/09/18 02:36:56;;;;;;;4.97;3.22;;;21.70;99.90;;;;;;4125976;28;20117;-67
2023/09/18 02:38:57;;;;;;;3.28;2.63;;;21.70;99.90;;;;;;4125324;28;20058;-61
2023/09/18 02:40:58;;;;;;;3.53;2.88;;;21.70;99.90;;;;;;4136286;28;20038;-66
2023/09/18 02:42:58;;;;;;;4.55;3.33;;;21.70;99.90;;;;;;4124456;28;20422;-66
2023/09/18 02:44:59;;;;;;;4.22;3.17;;;21.70;99.90;;;;;;4122616;28;20035;-66
2023/09/18 02:47:00;;;;;;;3.50;2.92;;;21.70;99.90;;;;;;4123636;28;20983;-67
2023/09/18 02:49:01;;;;;;;3.97;3.13;;;21.80;99.90;;;;;;4128661;28;20077;-66
2023/09/18 02:51:02;;;;;;;3.97;2.97;;;21.80;99.90;;;;;;4130679;28;20089;-69
2023/09/18 02:53:06;;;;;;;5.57;3.40;;;21.80;99.90;;;;;;4139776;28;20534;-67
2023/09/18 02:55:06;;;;;;;7.32;4.20;;;21.70;99.90;;;;;;4126425;28;20050;-66
2023/09/18 02:57:07;;;;;;;5.72;3.78;;;21.70;99.90;;;;;;4122631;28;20081;-67
2023/09/18 02:59:08;;;;;;;4.10;3.20;;;21.60;99.90;;;;;;4128741;28;20042;-67
2023/09/18 03:01:09;;;;;;;10.18;4.18;;;21.70;99.90;;;;;;4126530;28;20050;-67
2023/09/18 03:03:10;;;;;;;7.03;4.25;;;21.60;99.90;;;;;;4123687;28;20399;-66
2023/09/18 03:05:11;;;;;;;7.03;4.18;;;21.60;99.90;;;;;;4123617;28;20471;-66
2023/09/18 03:07:15;;;;;;;8.70;4.85;;;21.50;99.90;;;;;;4123284;28;20042;-66
2023/09/18 03:09:16;;;;;;;7.38;4.03;;;21.40;99.90;;;;;;4128296;28;20044;-66
2023/09/18 03:11:17;;;;;;;12.48;4.38;;;21.40;99.90;;;;;;4138396;28;20117;-67
2023/09/18 03:13:18;;;;;;;8.45;4.53;;;21.40;99.90;;;;;;4128944;28;20053;-67
2023/09/18 03:15:18;;;;;;;6.60;4.15;;;21.40;99.90;;;;;;4132038;28;20042;-67
2023/09/18 03:17:20;;;;;;;8.98;4.45;;;21.40;99.90;;;;;;4127251;28;20518;-67
2023/09/18 03:19:22;;;;;;;9.05;4.78;;;21.40;99.90;;;;;;4132464;28;20038;-67
2023/09/18 03:21:22;;;;;;;6.40;4.40;;;21.30;99.90;;;;;;4129965;28;20058;-67
2023/09/18 03:23:23;;;;;;;7.50;4.10;;;21.30;99.90;;;;;;4126133;28;20042;-66
2023/09/18 03:25:24;;;;;;;6.68;4.35;;;21.30;99.90;;;;;;4119178;28;20042;-67
2023/09/18 03:27:28;;;;;;;8.27;4.30;;;21.30;99.90;;;;;;4128768;28;20078;-66
2023/09/18 03:29:30;;;;;;;8.50;3.85;;;21.30;99.90;;;;;;4126981;28;20506;-66
2023/09/18 03:31:30;;;;;;;8.20;4.05;;;21.30;99.90;;;;;;4127657;28;20034;-66
2023/09/18 03:33:31;;;;;;;7.82;4.25;;;21.30;99.90;;;;;;4127063;28;20042;-66
2023/09/18 03:35:32;;;;;;;6.57;4.32;;;21.30;99.90;;;;;;4127223;28;20387;-66
2023/09/18 03:37:33;;;;;;;5.97;4.03;;;21.30;99.90;;;;;;4123358;28;20031;-68
2023/09/18 03:39:33;;;;;;;9.45;4.28;;;21.30;99.90;;;;;;4128272;28;20056;-67
2023/09/18 03:41:34;;;;;;;8.00;4.18;;;21.30;99.90;;;;;;4129495;28;20035;-67
2023/09/18 03:43:34;;;;;;;8.60;4.18;;;21.30;99.90;;;;;;4126737;28;20394;-67
2023/09/18 03:45:35;;;;;;;6.28;4.07;;;21.30;99.90;;;;;;4126278;28;20045;-65
2023/09/18 03:47:37;;;;;;;8.57;3.70;;;21.30;99.90;;;;;;4128703;28;20042;-67
2023/09/18 03:49:37;;;;;;;8.57;3.70;;;21.30;99.90;;;;;;4136821;28;20041;-61
2023/09/18 03:51:38;;;;;;;10.05;4.07;;;21.30;99.90;;;;;;4133188;28;20038;-61
2023/09/18 03:53:39;;;;;;;9.75;4.20;;;21.30;99.90;;;;;;4128134;28;20026;-61
2023/09/18 03:55:39;;;;;;;5.57;3.42;;;21.30;99.90;;;;;;4129126;28;20186;-61
2023/09/18 03:57:41;;;;;;;8.00;3.42;;;21.30;99.90;;;;;;4121494;28;20035;-61
2023/09/18 03:59:42;;;;;;;9.00;3.15;;;21.30;99.90;;;;;;4126191;28;20106;-66
2023/09/18 04:01:43;;;;;;;6.13;3.40;;;21.30;99.90;;;;;;4130349;28;20494;-67
2023/09/18 04:03:43;;;;;;;7.70;3.15;;;21.30;99.90;;;;;;4125054;28;20106;-66
2023/09/18 04:05:44;;;;;;;7.22;2.60;;;21.30;99.90;;;;;;4121842;28;20068;-66
2023/09/18 04:07:46;;;;;;;5.07;3.00;;;21.30;99.90;;;;;;4132310;28;20034;-66
2023/09/18 04:09:46;;;;;;;5.95;3.13;;;21.30;99.90;;;;;;4128293;28;20046;-66
2023/09/18 04:11:47;;;;;;;5.20;2.67;;;21.40;99.90;;;;;;4123125;28;20058;-68
2023/09/18 04:13:47;;;;;;;4.90;2.90;;;21.40;99.90;;;;;;4129649;28;20041;-67
2023/09/18 04:15:48;;;;;;;3.78;2.67;;;21.40;99.90;;;;;;4113054;28;20442;-66
2023/09/18 04:17:49;;;;;;;7.35;3.30;;;21.40;99.90;;;;;;4126773;28;20035;-67
2023/09/18 04:19:49;;;;;;;10.10;3.80;;;21.50;99.90;;;;;;4126531;28;20125;-66
2023/09/18 04:21:50;;;;;;;6.55;3.20;;;21.50;99.90;;;;;;4120452;28;20046;-66
2023/09/18 04:23:55;;;;;;;10.60;3.70;;;21.40;99.90;;;;;;4127497;28;20038;-66
2023/09/18 04:25:58;;;;;;;5.55;3.30;;;21.40;99.90;;;;;;4120313;28;20038;-66
2023/09/18 04:27:58;;;;;;;7.30;3.33;;;21.30;99.90;;;;;;4125426;28;20348;-66
2023/09/18 04:30:00;;;;;;;7.20;3.40;;;21.30;99.90;;;;;;4130962;28;20034;-67
2023/09/18 04:32:01;;;;;;;12.48;3.53;;;21.20;99.90;;;;;;4128424;28;20475;-67
2023/09/18 04:34:02;;;;;;;5.82;3.72;;;21.20;99.90;;;;;;4143277;28;20120;-67
2023/09/18 04:36:03;;;;;;;7.07;3.85;;;21.20;99.90;;;;;;4138776;28;20054;-66
2023/09/18 04:38:05;;;;;;;7.63;3.95;;;21.10;99.90;;;;;;4129088;28;20557;-66
2023/09/18 04:40:09;;;;;;;6.72;3.45;;;21.10;99.90;;;;;;4126871;28;20054;-67
2023/09/18 04:42:10;;;;;;;4.38;3.17;;;21.10;99.90;;;;;;4127651;28;20398;-66
2023/09/18 04:44:12;;;;;;;5.55;3.50;;;21.10;99.90;;;;;;4128779;28;20045;-67
2023/09/18 04:46:13;;;;;;;5.53;3.25;;;21.10;99.90;;;;;;4127380;28;20475;-67
2023/09/18 04:48:13;;;;;;;6.00;3.35;;;21.10;99.90;;;;;;4128909;28;20041;-67
2023/09/18 04:50:14;;;;;;;4.75;3.13;;;21.10;99.90;;;;;;4126489;28;20053;-66
2023/09/18 04:52:15;;;;;;;6.57;3.05;;;21.10;99.90;;;;;;4131297;28;20081;-67
2023/09/18 04:54:15;;;;;;;4.18;3.13;;;21.10;99.90;;;;;;4127252;28;20113;-66
2023/09/18 04:56:16;;;;;;;5.63;3.63;;;21.10;99.90;;;;;;4126016;28;20035;-66
2023/09/18 04:58:17;;;;;;;7.97;3.25;;;21.10;99.90;;;;;;4126961;28;20097;-66
2023/09/18 05:00:18;;;;;;;4.38;3.05;;;21.10;99.90;;;;;;4121422;28;20066;-67
2023/09/18 05:02:19;;;;;;;6.15;3.20;;;21.10;99.90;;;;;;4125554;28;20050;-66
2023/09/18 05:04:20;;;;;;;5.20;2.97;;;21.10;99.90;;;;;;4125971;28;20427;-66
2023/09/18 05:06:20;;;;;;;4.85;3.00;;;21.10;99.90;;;;;;4123425;28;20107;-66
2023/09/18 05:08:22;;;;;;;7.65;3.33;;;21.10;99.90;;;;;;4125510;28;20285;-65
2023/09/18 05:10:23;;;;;;;4.93;3.10;;;21.10;99.90;;;;;;4124303;28;20030;-66
2023/09/18 05:12:23;;;;;;;7.15;3.05;;;21.10;99.90;;;;;;4127235;28;20045;-65
2023/09/18 05:14:24;;;;;;;7.13;3.40;;;21.10;99.90;;;;;;4128933;28;20436;-66
2023/09/18 05:16:24;;;;;;;4.85;3.20;;;21.10;99.90;;;;;;4122857;28;20034;-65
2023/09/18 05:18:25;;;;;;;4.63;3.13;;;21.10;99.90;;;;;;4126441;28;20396;-66
2023/09/18 05:20:27;;;;;;;12.75;3.70;;;21.10;99.90;;;;;;4123424;28;20090;-66
2023/09/18 05:22:28;;;;;;;3.30;2.75;;;21.10;99.90;;;;;;4136207;28;20041;-66
2023/09/18 05:24:29;;;;;;;4.78;3.10;;;21.10;99.90;;;;;;4134102;28;20037;-66
2023/09/18 05:26:30;;;;;;;5.82;3.05;;;21.00;99.90;;;;;;4127421;28;20034;-66
2023/09/18 05:28:31;;;;;;;4.82;3.42;;;21.00;99.90;;;;;;4123596;28;20125;-66
2023/09/18 05:30:40;;;;;;;6.07;3.47;;;21.00;99.90;;;;;;4119767;28;20077;-67
2023/09/18 05:32:43;;;;;;;9.68;3.30;;;21.00;99.90;;;;;;4123599;28;20464;-66
2023/09/18 05:34:43;;;;;;;;;;;21.00;99.90;;;;;;4123543;28;20038;-66
2023/09/18 05:36:44;;;;;;;5.28;2.97;;;21.00;99.90;;;;;;4121992;28;19914;-66
2023/09/18 05:38:45;;;;;;;4.97;3.10;;;21.00;99.90;;;;;;4126828;28;20046;-66
2023/09/18 05:40:46;;;;;;;6.38;3.45;;;21.00;99.90;;;;;;4129961;28;20105;-66
2023/09/18 05:42:47;;;;;;;4.72;2.95;;;21.00;99.90;;;;;;4126408;28;20053;-66
2023/09/18 05:44:47;;;;;;;5.75;2.90;;;20.90;99.90;;;;;;4127215;28;20039;-66
2023/09/18 05:46:48;;;;;;;5.30;3.05;;;21.00;99.90;;;;;;4120983;28;20038;-66
2023/09/18 05:48:49;;;;;;;3.42;2.50;;;21.00;99.90;;;;;;4126396;28;20038;-67
2023/09/18 05:50:50;;;;;;;5.85;2.83;;;20.90;99.90;;;;;;4130753;28;20042;-67
2023/09/18 05:52:51;;;;;;;9.32;2.85;;;20.90;99.90;;;;;;4127046;28;20100;-66
2023/09/18 05:54:52;;;;;;;5.55;2.80;;;20.90;99.90;;;;;;4119276;28;20037;-66
2023/09/18 05:56:52;;;;;;;7.13;3.20;;;20.80;99.90;;;;;;4124982;28;20092;-66
2023/09/18 05:58:55;;;;;;;6.20;2.63;;;20.80;99.90;;;;;;4126543;28;20034;-66
2023/09/18 06:00:55;;;;;;;7.22;2.88;;;20.90;99.90;;;;;;4119687;28;20097;-66
2023/09/18 06:02:56;;;;;;;5.53;2.30;;;20.80;99.90;;;;;;4124704;28;20038;-66
2023/09/18 06:05:00;;;;;;;5.30;2.30;;;20.80;99.90;;;;;;4124748;28;20037;-66
2023/09/18 06:07:01;;;;;;;5.63;2.30;;;20.80;99.90;;;;;;4113628;28;20100;-66
2023/09/18 06:09:01;;;;;;;7.88;2.50;;;20.70;99.90;;;;;;4123477;28;20133;-66
2023/09/18 06:11:02;;;;;;;6.05;2.30;;;20.70;99.90;;;;;;4118265;28;20129;-66
2023/09/18 06:13:05;;;;;;;5.88;2.35;;;20.70;99.90;;;;;;4122401;28;20700;-66
2023/09/18 06:15:11;;;;;;;3.55;2.00;;;20.70;99.90;;;;;;4120843;28;20042;-66
2023/09/18 06:17:12;;;;;;;5.40;1.85;;;20.70;99.90;;;;;;4121981;28;20042;-66
2023/09/18 06:19:13;;;;;;;5.10;2.00;;;20.70;99.90;;;;;;4117273;28;20086;-65
2023/09/18 06:21:13;;;;;;;11.05;2.28;;;20.70;99.90;;;;;;4131460;28;20081;-61
2023/09/18 06:23:14;;;;;;;4.97;1.98;;;20.60;99.90;;;;;;4119191;28;20042;-61
2023/09/18 06:25:15;;;;;;;4.60;2.03;;;20.70;99.90;;;;;;4120331;28;20125;-61
2023/09/18 06:27:16;;;;;;;3.90;2.03;;;20.70;99.90;;;;;;4123599;28;20049;-61
2023/09/18 06:29:16;;;;;;;4.82;2.10;;;20.70;99.90;;;;;;4122800;28;20049;-62
2023/09/18 06:31:17;;;;;;;5.32;2.50;;;20.70;99.90;;;;;;4118722;28;20035;-61
2023/09/18 06:33:17;;;;;;;3.08;2.10;;;20.70;99.90;;;;;;4120181;28;20044;-61
2023/09/18 06:35:18;;;;;;;6.10;1.98;;;20.70;99.90;;;;;;4122466;28;20109;-62
2023/09/18 06:37:20;;;;;;;4.90;1.80;;;20.70;99.90;;;;;;4122101;28;20038;-62
2023/09/18 06:39:22;;;;;;;3.08;1.73;;;20.70;99.90;;;;;;4121542;28;20506;-62
2023/09/18 06:41:22;;;;;;;6.88;1.85;;;20.70;99.90;;;;;;4117803;28;20046;-61
2023/09/18 06:43:23;;;;;;;2.85;1.60;;;20.70;99.90;;;;;;4121592;28;20080;-62
2023/09/18 06:45:24;;;;;;;5.60;1.70;;;20.70;99.90;;;;;;4120553;28;20431;-62
2023/09/18 06:47:24;;;;;;;9.80;2.20;;;20.70;99.90;;;;;;4122743;28;20065;-61
2023/09/18 06:49:25;;;;;;;4.78;1.50;;;20.70;99.90;;;;;;4125141;28;20534;-62
2023/09/18 06:51:29;;;;;;;4.45;2.00;;;20.70;99.90;;;;;;4122129;28;20042;-62
2023/09/18 06:53:29;;;;;;;4.05;1.60;;;20.70;99.90;;;;;;4124159;28;20046;-62
2023/09/18 06:55:30;;;;;;;2.60;1.42;;;20.70;99.90;;;;;;4126067;28;20092;-61
2023/09/18 06:57:31;;;;;;;7.32;2.00;;;20.70;99.90;;;;;;4125563;28;20129;-62
2023/09/18 06:59:33;;;;;;;5.05;1.70;;;20.70;99.90;;;;;;4124942;28;20104;-62
2023/09/18 07:01:33;;;;;;;3.20;1.50;;;20.80;99.90;;;;;;4123367;28;20450;-62
2023/09/18 07:03:36;;;;;;;4.10;1.52;;;20.70;99.90;;;;;;4124230;28;20088;-62
2023/09/18 07:05:37;;;;;;;3.97;1.70;;;20.80;99.90;;;;;;4123036;28;20041;-62
2023/09/18 07:07:37;;;;;;;3.10;1.65;;;20.80;99.90;;;;;;4122735;28;20042;-62
2023/09/18 07:09:38;;;;;;;3.28;1.63;;;20.80;99.90;;;;;;4125253;28;20061;-62
2023/09/18 07:11:39;;;;;;;4.45;1.50;;;20.90;99.90;;;;;;4119792;28;20045;-62
2023/09/18 07:13:39;;;;;;;4.78;1.85;;;20.90;99.90;;;;;;4124202;28;20668;-62
2023/09/18 07:15:41;;;;;;;4.38;1.50;;;20.90;99.90;;;;;;4123468;28;20046;-62
2023/09/18 07:17:42;;;;;;;1.65;1.05;;;20.90;99.90;;;;;;4123864;28;20039;-63
2023/09/18 07:19:43;;;;;;;5.35;1.85;;;20.90;99.90;;;;;;4125970;28;20049;-61
2023/09/18 07:21:44;;;;;;;2.38;1.20;;;20.90;99.90;;;;;;4123684;28;20053;-62
2023/09/18 07:23:47;;;;;;;3.90;1.63;;;20.90;99.90;;;;;;4126421;28;20042;-63
2023/09/18 07:25:48;;;;;;;3.05;1.30;;;20.90;99.90;;;;;;4123818;28;20471;-62
2023/09/18 07:27:48;;;;;;;1.98;1.23;;;20.90;99.90;;;;;;4123131;28;20038;-62
2023/09/18 07:29:49;;;;;;;2.58;1.10;;;20.90;99.90;;;;;;4124682;28;20035;-65
2023/09/18 07:31:50;;;;;;;2.90;1.42;;;20.90;99.90;;;;;;4123952;28;20042;-68
2023/09/18 07:33:52;;;;;;;3.38;1.77;;;21.00;99.90;;;;;;4125754;28;20031;-65
2023/09/18 07:35:53;;;;;;;3.00;1.60;;;21.00;99.90;;;;;;4122692;28;20030;-65
2023/09/18 07:37:54;;;;;;;5.05;1.70;;;21.00;99.90;;;;;;4124493;28;20089;-64
2023/09/18 07:39:54;;;;;;;6.63;1.50;;;21.00;99.90;;;;;;4123092;28;20439;-65
2023/09/18 07:41:55;;;;;;;3.08;1.35;;;21.00;99.90;;;;;;4125074;28;20482;-65
2023/09/18 07:43:58;;;;;;;3.10;1.52;;;21.00;99.90;;;;;;4125712;28;20069;-65
2023/09/18 07:45:59;;;;;;;4.70;1.40;;;21.00;99.90;;;;;;4121765;28;20411;-65
2023/09/18 07:48:00;;;;;;;3.33;1.60;;;21.00;99.90;;;;;;4126157;28;20034;-65
2023/09/18 07:50:01;;;;;;;3.67;1.17;;;21.00;99.90;;;;;;4125617;28;20414;-65
2023/09/18 07:52:01;;;;;;;4.70;1.40;;;21.00;99.90;;;;;;4126066;28;20038;-65
2023/09/18 07:54:02;;;;;;;1.63;1.05;;;21.00;99.90;;;;;;4127119;28;20141;-65
2023/09/18 07:56:04;;;;;;;3.22;1.30;;;21.00;99.90;;;;;;4121433;28;20448;-65
2023/09/18 07:58:05;;;;;;;2.55;1.25;;;21.00;99.90;;;;;;4123982;28;20058;-65
2023/09/18 08:00:12;;;;;;;2.95;1.50;;;21.00;99.90;;;;;;4122748;28;20558;-65
2023/09/18 08:02:12;;;;;;;2.50;1.60;;;21.00;99.90;;;;;;4125597;28;20048;-65
2023/09/18 08:04:13;;;;;;;4.32;1.25;;;21.00;99.90;;;;;;4126336;28;20158;-65
2023/09/18 08:06:15;;;;;;;4.57;1.55;;;21.10;99.90;;;;;;4124257;28;20042;-65
2023/09/18 08:08:16;;;;;;;3.88;1.20;;;21.10;99.90;;;;;;4123421;28;20038;-65
2023/09/18 08:10:17;;;;;;;3.17;1.20;;;21.10;99.90;;;;;;4125841;28;20089;-65
2023/09/18 08:12:18;;;;;;;2.58;1.20;;;21.10;99.90;;;;;;4125334;28;20046;-65
2023/09/18 08:14:18;;;;;;;3.95;1.70;;;21.10;99.90;;;;;;4126487;28;20077;-65
2023/09/18 08:16:19;;;;;;;2.72;1.20;;;21.10;99.90;;;;;;4121289;28;20031;-65
2023/09/18 08:18:20;;;;;;;3.85;1.40;;;21.10;99.90;;;;;;4121333;28;20558;-65
2023/09/18 08:20:21;;;;;;;2.53;1.10;;;21.20;99.90;;;;;;4125400;28;20511;-67
2023/09/18 08:22:22;;;;;;;2.30;1.15;;;21.20;99.90;;;;;;4125411;28;20030;-65
2023/09/18 08:24:23;;;;;;;2.38;1.13;;;21.20;99.90;;;;;;4126036;28;20387;-64
2023/09/18 08:26:25;;;;;;;2.67;1.20;;;21.20;99.90;;;;;;4124260;28;20035;-65
2023/09/18 08:28:25;;;;;;;7.18;1.60;;;21.20;99.90;;;;;;4122934;28;20406;-65
2023/09/18 08:30:26;;;;;;;1.98;1.10;;;21.30;99.90;;;;;;4122973;28;20448;-65
2023/09/18 08:32:30;;;;;;;2.28;1.23;;;21.30;99.90;;;;;;4125470;28;20577;-65
2023/09/18 08:34:30;;;;;;;4.30;1.45;;;21.40;99.90;;;;;;4138320;28;20037;-65
2023/09/18 08:36:31;;;;;;;2.55;1.30;;;21.30;99.90;;;;;;4123442;28;20051;-65
2023/09/18 08:38:32;;;;;;;1.75;1.25;;;21.40;99.90;;;;;;4122459;28;20058;-65
2023/09/18 08:40:35;;;;;;;4.18;1.55;;;21.40;99.90;;;;;;4125232;28;20289;-66
2023/09/18 08:42:39;;;;;;;2.75;1.15;;;21.40;99.90;;;;;;4123902;28;20130;-66
2023/09/18 08:44:42;;;;;;;2.70;1.20;;;21.40;99.90;;;;;;4124743;28;20783;-66
2023/09/18 08:46:43;;;;;;;5.35;1.55;;;21.40;99.90;;;;;;4121885;28;20049;-66
2023/09/18 08:48:45;;;;;;;1.65;1.48;;;21.40;99.90;;;;;;4123976;28;20038;-68
2023/09/18 08:50:47;;;;;;;3.30;1.23;;;21.50;99.90;;;;;;4126134;28;20138;-67
2023/09/18 08:52:48;;;;;;;1.65;0.93;;;21.40;99.90;;;;;;4124871;28;20471;-66
2023/09/18 08:54:50;;;;;;;6.00;1.70;;;21.50;99.90;;;;;;4125145;28;20046;-66
2023/09/18 08:56:52;;;;;;;2.50;1.30;;;21.50;99.90;;;;;;4124439;28;20077;-69
2023/09/18 08:58:53;;;;;;;2.90;1.40;;;21.50;99.90;;;;;;4124617;28;20031;-66
2023/09/18 09:00:54;;;;;;;3.92;1.67;;;21.40;99.90;;;;;;4121877;28;20084;-66
2023/09/18 09:02:55;;;;;;;2.83;1.42;;;21.50;99.90;;;;;;4124370;28;20122;-66
2023/09/18 09:04:55;;;;;;;3.13;1.20;;;21.50;99.90;;;;;;4124442;28;20073;-66
2023/09/18 09:06:59;;;;;;;7.47;1.70;;;21.40;99.90;;;;;;4124422;28;20031;-67
2023/09/18 09:08:59;;;;;;;3.28;1.38;;;21.50;99.90;;;;;;4122873;28;20346;-66
2023/09/18 09:11:00;;;;;;;3.92;1.30;;;21.40;99.90;;;;;;4124886;28;20070;-66
2023/09/18 09:13:02;;;;;;;2.45;1.33;;;21.50;99.90;;;;;;4124301;28;20050;-66
2023/09/18 09:15:06;;;;;;;3.78;1.23;;;21.50;99.90;;;;;;4124939;28;20375;-66
2023/09/18 09:17:07;;;;;;;4.95;1.15;;;21.50;99.90;;;;;;4121818;28;20047;-67
2023/09/18 09:19:08;;;;;;;1.73;0.98;;;21.50;99.90;;;;;;4119267;28;20495;-66
2023/09/18 09:21:08;;;;;;;2.47;1.30;;;21.60;99.90;;;;;;4121527;28;20069;-67
2023/09/18 09:23:10;;;;;;;2.72;1.10;;;21.60;99.90;;;;;;4121016;28;20588;-66
2023/09/18 09:25:20;;;;;;;6.93;1.55;;;21.60;99.90;;;;;;4117480;28;20049;-67
2023/09/18 09:27:20;;;;;;;2.55;1.15;;;21.60;99.90;;;;;;4120531;28;20501;-67
2023/09/18 09:29:21;;;;;;;3.72;1.25;;;21.60;99.90;;;;;;4121319;28;20030;-67
2023/09/18 09:31:28;;;;;;;3.92;1.38;;;21.60;99.90;;;;;;4119418;28;20446;-70
2023/09/18 09:33:30;;;;;;;3.03;1.25;;;21.60;99.90;;;;;;4124213;28;20046;-67
2023/09/18 09:35:35;;;;;;;5.35;1.30;;;21.60;99.90;;;;;;4119657;28;21645;-67
2023/09/18 09:37:36;;;;;;;2.42;1.20;;;21.70;99.90;;;;;;4122563;28;20061;-66
2023/09/18 09:42:24;;;;;;;3.72;1.42;;;21.70;99.90;;;;;;4125132;28;20459;-66
2023/09/18 09:44:25;;;;;;;4.45;1.20;;;21.70;99.90;;;;;;4118799;28;20097;-67
2023/09/18 09:46:27;;;;;;;2.60;1.10;;;21.70;99.90;;;;;;4123585;28;20050;-67
2023/09/18 09:48:31;;;;;;;4.47;1.38;;;21.80;99.90;;;;;;4121417;28;20061;-66
2023/09/18 09:50:32;;;;;;;3.63;1.60;;;21.80;99.90;;;;;;4125020;28;20077;-62
2023/09/18 09:52:34;;;;;;;1.73;1.00;;;21.90;99.90;;;;;;4125047;28;20045;-62
2023/09/18 09:54:36;;;;;;;3.83;1.55;;;21.90;99.90;;;;;;4124986;28;20069;-62
2023/09/18 09:56:44;;;;;;;3.25;1.25;;;21.90;99.90;;;;;;4138266;28;20042;-61
2023/09/18 09:59:04;;;;;;;4.30;1.13;;;22.00;99.90;;;;;;4121997;28;20034;-65
2023/09/18 10:01:10;;;;;;;1.63;1.25;;;22.00;99.90;;;;;;4121275;28;20475;-62
2023/09/18 10:03:18;;;;;;;4.25;1.20;;;22.00;99.90;;;;;;4121530;28;20077;-62
2023/09/18 10:05:19;;;;;;;4.30;1.38;;;22.10;99.90;;;;;;4118650;28;20031;-61
2023/09/18 10:07:21;;;;;;;2.90;1.35;;;22.10;99.90;;;;;;4125165;28;20462;-62
2023/09/18 10:09:23;;;;;;;1.75;1.02;;;22.20;99.90;;;;;;4124937;28;20070;-61
2023/09/18 10:11:26;;;;;;;3.70;1.40;;;22.30;99.90;;;;;;4120182;28;20065;-62
2023/09/18 10:13:43;;;;;;;3.40;1.20;;;22.40;99.90;;;;;;4110152;28;20041;-61
2023/09/18 10:15:46;;;;;;;4.15;1.23;;;22.50;99.90;;;;;;4119298;28;20514;-61
2023/09/18 10:17:49;;;;;;;3.40;1.48;;;22.60;99.90;;;;;;4121144;28;20549;-62
2023/09/18 10:20:16;;;;;;;3.60;1.23;;;22.70;99.90;;;;;;4121672;28;20062;-62
2023/09/18 10:22:25;;;;;;;4.20;1.48;;;22.70;99.90;;;;;;4123674;28;20026;-62
2023/09/18 10:24:31;;;;;;;6.47;1.42;;;22.80;99.90;;;;;;4120488;28;20042;-61
2023/09/18 10:26:38;;;;;;;3.22;1.60;;;22.90;99.90;;;;;;4124470;28;20534;-61
2023/09/18 10:28:40;;;;;;;5.78;1.95;;;23.00;99.90;;;;;;4121022;28;20065;-63
2023/09/18 10:30:42;;;;;;;4.93;2.05;;;23.10;99.90;;;;;;4123269;28;20111;-62
2023/09/18 10:32:45;;;;;;;4.47;1.65;;;23.20;99.90;;;;;;4123611;28;20161;-62
2023/09/18 10:34:47;;;;;;;1.83;1.20;;;23.10;99.90;;;;;;4124152;28;20309;-62
2023/09/18 10:36:53;;;;;;;7.57;1.73;;;23.30;99.90;;;;;;4122949;28;20054;-63